Startpagina
METAR-TAF:

METAR-TAF

Vliegvelden :

Florianópolis, Santa Catarina, Brazilië

Aeroporto Internacional Hercílio Luz

breedte: 27-40S, lengte: 048-33W, hoogte: 5 m

Actueel weer

Dit bericht is 44 minuten geleden gemaakt, om 09:00 UTC
Wind 8 kt uit het noorden
Temperatuur 20°C
Vochtigheid 88%
Druk 1019 hPa
Zicht 10 km of meer
Weinig wolken op 2000 ft

METAR: SBFL 190900Z 35008KT 9999 FEW020 20/18 Q1019

Tijdstip: 06:44 (09:44 UTC)

Verwachting

Dit bericht is 6 uur en het 14 minuten geleden gemaakt, om 03:30 UTC
Verwachting geldig van 19 om 06 UTC tot 20 om 06 UTC
Wind 5 kt uit het noordnoordwesten
Zicht 10 km of meer
Weinig wolken op 2000 ft
Wijzigt naar
van 19 om 12 UTC tot 19 om 14 UTC
Wind 11 kt uit het noorden
Weinig wolken op 3000 ft
Wijzigt naar
van 20 om 00 UTC tot 20 om 02 UTC
Wind 5 kt uit het noordnoordwesten
Weinig wolken op 2000 ft

TAF: SBFL 190330Z 1906/2006 33005KT 9999 FEW020 TN20/1907Z TX28/1918Z BECMG 1912/1914 01011KT FEW030 BECMG 2000/2002 34005KT FEW020 RMK PDW

Waarnemingen en weersverwachtingen van meer dan 4000 vliegvelden (METAR en TAF).

De beschikbare stations zijn de gele en rode punten op de kaart.

Ga met uw muis naar het station om de naam te zien.

Klik dan om waarnemingen en weersverwachtingen te zien.

kaart wijzigen: klik op de groene knoppen met een zwart kruis om in te zoomen, op de groene knop met een streepje om uit te zoomen of op de groene pijlen voor aangrenzende kaarten.


METAR-TAF: